Time;durP1;ratioP1;P1;durP2;ratioP2;P2;SDS_P1;SDS_P2;PMS_P1;PMS_P2;Temp;Humidity;BMP_temperature;BMP_pressure;BME280_temperature;BME280_humidity;BME280_pressure;Samples;Min_cycle;Max_cycle;Signal;HPM_P1;HPM_P2
2023/04/26 00:01:59;;;;;;;8.25;4.88;;;;;;;-144.85;100.00;61331.59;5080369;28;31930;-66
2023/04/26 00:04:27;;;;;;;14.70;5.07;;;;;;;-144.85;100.00;61331.59;5081251;28;30521;-66
2023/04/26 00:06:56;;;;;;;11.98;5.07;;;;;;;-144.85;100.00;61331.59;5078011;28;32552;-66
2023/04/26 00:09:23;;;;;;;13.68;4.93;;;;;;;-144.85;100.00;61331.59;5077608;28;32018;-66
2023/04/26 00:11:51;;;;;;;13.57;5.47;;;;;;;-144.85;100.00;61331.59;5076830;28;32166;-66
2023/04/26 00:14:18;;;;;;;9.70;4.97;;;;;;;-144.85;100.00;61331.59;5080953;28;31632;-66
2023/04/26 00:16:45;;;;;;;13.75;5.05;;;;;;;-144.85;100.00;61331.59;5062532;28;31318;-66
2023/04/26 00:19:12;;;;;;;12.07;5.40;;;;;;;-144.85;100.00;61331.59;5079422;28;31972;-66
2023/04/26 00:21:40;;;;;;;10.02;5.30;;;;;;;-144.85;100.00;61331.59;5077409;28;31868;-66
2023/04/26 00:24:08;;;;;;;9.32;5.32;;;;;;;-144.85;100.00;61331.59;5077507;28;31557;-66
2023/04/26 00:26:35;;;;;;;9.70;5.20;;;;;;;-144.85;100.00;61331.59;5078107;28;31722;-66
2023/04/26 00:29:03;;;;;;;10.00;5.20;;;;;;;-144.85;100.00;61331.59;5078138;28;32075;-66
2023/04/26 00:31:30;;;;;;;10.30;4.90;;;;;;;-144.85;100.00;61331.59;5076871;28;31839;-66
2023/04/26 00:33:58;;;;;;;11.50;4.80;;;;;;;-144.85;100.00;61331.59;5083235;28;32987;-67
2023/04/26 00:36:26;;;;;;;11.38;5.00;;;;;;;-144.85;100.00;61331.59;5078766;28;31375;-66
2023/04/26 00:38:53;;;;;;;11.98;5.20;;;;;;;-144.85;100.00;61331.59;5077703;28;32192;-66
2023/04/26 00:41:21;;;;;;;11.32;5.57;;;;;;;-144.85;100.00;61331.59;5078542;28;30490;-66
2023/04/26 00:43:48;;;;;;;12.88;5.45;;;;;;;-144.85;100.00;61331.59;5079179;28;31640;-67
2023/04/26 00:46:16;;;;;;;12.35;5.53;;;;;;;-144.85;100.00;61331.59;5079594;28;31394;-66
2023/04/26 00:48:43;;;;;;;10.95;5.18;;;;;;;-144.85;100.00;61331.59;5077299;28;33244;-66
2023/04/26 00:51:11;;;;;;;13.63;5.40;;;;;;;-144.85;100.00;61331.59;5078605;28;30612;-66
2023/04/26 00:53:39;;;;;;;11.27;5.05;;;;;;;-144.85;100.00;61331.59;5086056;28;30184;-67
2023/04/26 00:56:08;;;;;;;15.05;5.43;;;;;;;-144.85;100.00;61331.59;5075841;28;31237;-66
2023/04/26 00:58:37;;;;;;;13.32;5.90;;;;;;;-144.85;100.00;61331.59;5081001;28;32109;-66
2023/04/26 01:01:06;;;;;;;10.27;5.20;;;;;;;-144.85;100.00;61331.59;5078228;28;30751;-66
2023/04/26 01:03:35;;;;;;;10.10;5.18;;;;;;;-144.85;100.00;61331.59;5078894;28;33138;-66
2023/04/26 01:06:03;;;;;;;9.82;5.07;;;;;;;-144.85;100.00;61331.59;5077354;28;33186;-66
2023/04/26 01:08:30;;;;;;;16.25;5.45;;;;;;;-144.85;100.00;61331.59;5077162;28;33302;-66
2023/04/26 01:10:58;;;;;;;12.43;5.80;;;;;;;-144.85;100.00;61331.59;5075698;28;30668;-66
2023/04/26 01:13:26;;;;;;;10.80;5.53;;;;;;;-144.85;100.00;61331.59;5077613;28;30623;-66
2023/04/26 01:15:55;;;;;;;18.15;6.40;;;;;;;-144.85;100.00;61331.59;5078168;28;31413;-66
2023/04/26 01:18:22;;;;;;;13.20;5.93;;;;;;;-144.85;100.00;61331.59;5079596;28;32970;-66
2023/04/26 01:20:51;;;;;;;10.70;5.90;;;;;;;-144.85;100.00;61331.59;5089722;28;30137;-66
2023/04/26 01:23:19;;;;;;;15.10;5.75;;;;;;;-144.85;100.00;61331.59;5078430;28;32563;-66
2023/04/26 01:25:47;;;;;;;15.98;5.75;;;;;;;-144.85;100.00;61331.59;5077584;28;31289;-67
2023/04/26 01:28:14;;;;;;;14.98;5.90;;;;;;;-144.85;100.00;61331.59;5078313;28;32171;-66
2023/04/26 01:30:42;;;;;;;12.55;6.13;;;;;;;-144.85;100.00;61331.59;5077680;28;30560;-66
2023/04/26 01:33:09;;;;;;;10.40;5.40;;;;;;;-144.85;100.00;61331.59;5077682;28;31521;-66
2023/04/26 01:35:36;;;;;;;12.90;5.70;;;;;;;-144.85;100.00;61331.59;5076870;28;33423;-66
2023/04/26 01:38:03;;;;;;;10.65;5.68;;;;;;;-144.85;100.00;61331.59;5078857;28;32332;-65
2023/04/26 01:40:31;;;;;;;10.63;5.88;;;;;;;-144.85;100.00;61331.59;5077402;28;32037;-66
2023/04/26 01:42:58;;;;;;;9.95;5.30;;;;;;;-144.85;100.00;61331.59;5078709;28;31205;-66
2023/04/26 01:45:29;;;;;;;15.38;5.90;;;;;;;-144.85;100.00;61331.59;5076173;28;34959;-66
2023/04/26 01:48:15;;;;;;;12.57;6.53;;;;;;;-144.85;100.00;61331.59;5079917;28;32883;-66
2023/04/26 01:50:42;;;;;;;13.60;5.93;;;;;;;-144.85;100.00;61331.59;5079082;28;30533;-66
2023/04/26 01:53:12;;;;;;;13.60;6.30;;;;;;;-144.85;100.00;61331.59;5075444;28;31859;-67
2023/04/26 01:55:40;;;;;;;12.93;6.40;;;;;;;-144.85;100.00;61331.59;5079822;28;32580;-66
2023/04/26 01:58:08;;;;;;;13.30;5.97;;;;;;;-144.85;100.00;61331.59;5075065;28;31982;-67
2023/04/26 02:00:36;;;;;;;16.15;6.78;;;;;;;-144.85;100.00;61331.59;5077642;28;30705;-66
2023/04/26 02:03:03;;;;;;;13.80;6.68;;;;;;;-144.85;100.00;61331.59;5078990;28;30425;-66
2023/04/26 02:05:31;;;;;;;13.55;6.53;;;;;;;-144.85;100.00;61331.59;5077532;28;32819;-66
2023/04/26 02:07:58;;;;;;;14.88;6.65;;;;;;;-144.85;100.00;61331.59;5077850;28;32653;-66
2023/04/26 02:10:25;;;;;;;13.18;6.07;;;;;;;-144.85;100.00;61331.59;5076829;28;32854;-66
2023/04/26 02:12:52;;;;;;;13.93;6.90;;;;;;;-144.85;100.00;61331.59;5076655;28;30492;-66
2023/04/26 02:15:20;;;;;;;14.90;6.88;;;;;;;-144.85;100.00;61331.59;5076319;28;32297;-67
2023/04/26 02:17:48;;;;;;;12.50;6.40;;;;;;;-144.85;100.00;61331.59;5085640;28;31923;-67
2023/04/26 02:20:17;;;;;;;11.18;5.65;;;;;;;-144.85;100.00;61331.59;5076421;28;33416;-66
2023/04/26 02:22:44;;;;;;;15.30;6.38;;;;;;;-144.85;100.00;61331.59;5076245;28;30458;-66
2023/04/26 02:25:14;;;;;;;13.75;6.38;;;;;;;-144.85;100.00;61331.59;5075402;28;32534;-67
2023/04/26 02:27:41;;;;;;;11.48;5.35;;;;;;;-144.85;100.00;61331.59;5076823;28;32246;-67
2023/04/26 02:30:09;;;;;;;13.80;6.28;;;;;;;-144.85;100.00;61331.59;5075060;28;30666;-67
2023/04/26 02:32:36;;;;;;;16.35;6.47;;;;;;;-144.85;100.00;61331.59;5075888;28;32292;-67
2023/04/26 02:35:04;;;;;;;14.13;6.45;;;;;;;-144.85;100.00;61331.59;5078718;28;32235;-66
2023/04/26 02:37:32;;;;;;;11.82;6.40;;;;;;;-144.85;100.00;61331.59;5074892;28;32296;-66
2023/04/26 02:39:59;;;;;;;12.23;6.82;;;;;;;-144.85;100.00;61331.59;5077546;28;31754;-66
2023/04/26 02:42:27;;;;;;;13.55;6.10;;;;;;;-144.85;100.00;61331.59;5077965;28;33116;-66
2023/04/26 02:44:54;;;;;;;13.85;6.72;;;;;;;-144.85;100.00;61331.59;5075083;28;31072;-67
2023/04/26 02:47:22;;;;;;;17.58;6.40;;;;;;;-144.85;100.00;61331.59;5077126;28;30983;-66
2023/04/26 02:49:51;;;;;;;14.30;6.05;;;;;;;-144.85;100.00;61331.59;5092769;28;31770;-66
2023/04/26 02:52:19;;;;;;;17.02;6.60;;;;;;;-144.85;100.00;61331.59;5092716;28;30395;-67
2023/04/26 02:54:47;;;;;;;17.58;7.28;;;;;;;-144.85;100.00;61331.59;5091641;28;32515;-67
2023/04/26 02:57:14;;;;;;;15.45;6.65;;;;;;;-144.85;100.00;61331.59;5095075;28;30943;-66
2023/04/26 02:59:42;;;;;;;13.45;6.25;;;;;;;-144.85;100.00;61331.59;5081625;28;30886;-66
2023/04/26 03:02:10;;;;;;;17.67;7.13;;;;;;;-144.85;100.00;61331.59;5079124;28;30564;-66
2023/04/26 03:04:38;;;;;;;19.60;7.18;;;;;;;-144.85;100.00;61331.59;5079406;28;32509;-66
2023/04/26 03:07:06;;;;;;;13.88;6.50;;;;;;;-144.85;100.00;61331.59;5080268;28;31109;-66
2023/04/26 03:09:37;;;;;;;15.75;6.55;;;;;;;-144.85;100.00;61331.59;5077469;28;30678;-66
2023/04/26 03:12:08;;;;;;;12.45;5.95;;;;;;;-144.85;100.00;61331.59;5079934;28;30485;-65
2023/04/26 03:14:36;;;;;;;17.13;6.93;;;;;;;-144.85;100.00;61331.59;5080398;28;31347;-65
2023/04/26 03:17:03;;;;;;;18.30;6.97;;;;;;;-144.85;100.00;61331.59;5080755;28;30847;-65
2023/04/26 03:19:32;;;;;;;14.02;7.13;;;;;;;-144.85;100.00;61331.59;5080473;28;31790;-66
2023/04/26 03:22:01;;;;;;;19.55;6.70;;;;;;;-144.85;100.00;61331.59;5081636;28;30518;-67
2023/04/26 03:24:29;;;;;;;15.73;6.90;;;;;;;-144.85;100.00;61331.59;5079156;28;31358;-66
2023/04/26 03:26:57;;;;;;;13.90;5.97;;;;;;;-144.85;100.00;61331.59;5076377;28;31093;-65
2023/04/26 03:29:24;;;;;;;14.93;6.85;;;;;;;-144.85;100.00;61331.59;5081951;28;30745;-66
2023/04/26 03:31:51;;;;;;;12.20;5.78;;;;;;;-144.85;100.00;61331.59;5077331;28;30359;-66
2023/04/26 03:34:18;;;;;;;14.43;6.53;;;;;;;-144.85;100.00;61331.59;5079888;28;31328;-66
2023/04/26 03:36:45;;;;;;;14.77;6.38;;;;;;;-144.85;100.00;61331.59;5080999;28;32045;-66
2023/04/26 03:39:13;;;;;;;16.45;6.70;;;;;;;-144.85;100.00;61331.59;5078880;28;32050;-68
2023/04/26 03:41:40;;;;;;;18.58;6.60;;;;;;;-144.85;100.00;61331.59;5077851;28;32531;-66
2023/04/26 03:44:11;;;;;;;14.60;6.85;;;;;;;-144.85;100.00;61331.59;5079797;28;31335;-66
2023/04/26 03:46:39;;;;;;;17.83;6.70;;;;;;;-144.85;100.00;61331.59;5079527;28;31057;-66
2023/04/26 03:49:06;;;;;;;17.02;7.05;;;;;;;-144.85;100.00;61331.59;5078014;28;30762;-66
2023/04/26 03:51:34;;;;;;;14.68;6.25;;;;;;;-144.85;100.00;61331.59;5078107;28;31568;-66
2023/04/26 03:54:01;;;;;;;18.17;6.03;;;;;;;-144.85;100.00;61331.59;5081295;28;32337;-66
2023/04/26 03:56:28;;;;;;;13.38;6.28;;;;;;;-144.85;100.00;61331.59;5079302;28;30738;-66
2023/04/26 03:58:56;;;;;;;13.90;6.28;;;;;;;-144.85;100.00;61331.59;5094803;28;30703;-66
2023/04/26 04:01:25;;;;;;;14.15;6.05;;;;;;;-144.85;100.00;61331.59;5080107;28;30387;-66
2023/04/26 04:03:52;;;;;;;15.25;6.85;;;;;;;-144.85;100.00;61331.59;5091450;28;31274;-66
2023/04/26 04:06:20;;;;;;;13.48;6.50;;;;;;;-144.85;100.00;61331.59;5078942;28;32081;-66
2023/04/26 04:08:48;;;;;;;12.50;5.93;;;;;;;-144.85;100.00;61331.59;5080125;28;32023;-67
2023/04/26 04:11:15;;;;;;;11.45;5.70;;;;;;;-144.85;100.00;61331.59;5078179;28;30374;-65
2023/04/26 04:13:43;;;;;;;11.07;4.78;;;;;;;-144.85;100.00;61331.59;5078386;28;30607;-66
2023/04/26 04:16:11;;;;;;;9.57;4.75;;;;;;;-144.85;100.00;61331.59;5080226;28;31798;-66
2023/04/26 04:18:38;;;;;;;9.57;5.05;;;;;;;-144.85;100.00;61331.59;5072570;28;32914;-66
2023/04/26 04:21:05;;;;;;;11.68;5.05;;;;;;;-144.85;100.00;61331.59;5076667;28;31903;-66
2023/04/26 04:23:33;;;;;;;13.45;5.47;;;;;;;-144.85;100.00;61331.59;5077899;28;32264;-69
2023/04/26 04:26:05;;;;;;;10.95;5.25;;;;;;;-144.85;100.00;61331.59;5069322;28;31954;-66
2023/04/26 04:28:33;;;;;;;12.07;5.07;;;;;;;-144.85;100.00;61331.59;5077150;28;30859;-66
2023/04/26 04:31:00;;;;;;;12.32;4.78;;;;;;;-144.85;100.00;61331.59;5079175;28;30282;-66
2023/04/26 04:33:28;;;;;;;11.18;5.18;;;;;;;-144.85;100.00;61331.59;5079627;28;31247;-66
2023/04/26 04:35:57;;;;;;;14.90;5.45;;;;;;;-144.85;100.00;61331.59;5080197;28;31052;-66
2023/04/26 04:38:25;;;;;;;11.73;5.28;;;;;;;-144.85;100.00;61331.59;5078786;28;30740;-66
2023/04/26 04:40:52;;;;;;;10.05;5.45;;;;;;;-144.85;100.00;61331.59;5078300;28;30599;-66
2023/04/26 04:43:20;;;;;;;11.40;5.45;;;;;;;-144.85;100.00;61331.59;5079396;28;32508;-66
2023/04/26 04:45:48;;;;;;;12.15;5.28;;;;;;;-144.85;100.00;61331.59;5077860;28;32222;-66
2023/04/26 04:48:17;;;;;;;13.82;5.60;;;;;;;-144.85;100.00;61331.59;5079886;28;32033;-66
2023/04/26 04:50:46;;;;;;;14.45;5.68;;;;;;;-144.85;100.00;61331.59;5095510;28;31432;-66
2023/04/26 04:53:15;;;;;;;13.45;5.13;;;;;;;-144.85;100.00;61331.59;5076779;28;31004;-68
2023/04/26 04:55:42;;;;;;;13.85;5.68;;;;;;;-144.85;100.00;61331.59;5077651;28;32111;-66
2023/04/26 04:58:13;;;;;;;13.82;5.85;;;;;;;-144.85;100.00;61331.59;5092067;28;31319;-66
2023/04/26 05:00:41;;;;;;;12.68;5.95;;;;;;;-144.85;100.00;61331.59;5078204;28;30484;-66
2023/04/26 05:03:22;;;;;;;17.02;5.80;;;;;;;-144.85;100.00;61331.59;5079098;28;31689;-66
2023/04/26 05:05:50;;;;;;;16.13;6.20;;;;;;;-144.85;100.00;61331.59;5079083;28;31189;-66
2023/04/26 05:08:18;;;;;;;17.75;6.10;;;;;;;-144.85;100.00;61331.59;5062238;28;31657;-66
2023/04/26 05:10:46;;;;;;;14.70;6.03;;;;;;;-144.85;100.00;61331.59;5078283;28;30225;-66
2023/04/26 05:13:13;;;;;;;12.75;5.90;;;;;;;-144.85;100.00;61331.59;5079685;28;31358;-66
2023/04/26 05:15:41;;;;;;;12.98;5.93;;;;;;;-144.85;100.00;61331.59;5077557;28;31392;-66
2023/04/26 05:18:08;;;;;;;17.58;6.47;;;;;;;-144.85;100.00;61331.59;5076436;28;32088;-66
2023/04/26 05:20:36;;;;;;;14.32;6.18;;;;;;;-144.85;100.00;61331.59;5061238;28;30548;-65
2023/04/26 05:23:03;;;;;;;17.73;6.25;;;;;;;-144.85;100.00;61331.59;5087463;28;33904;-66
2023/04/26 05:25:31;;;;;;;11.93;6.10;;;;;;;-144.85;100.00;61331.59;5078137;28;30916;-65
2023/04/26 05:28:11;;;;;;;15.88;6.28;;;;;;;-144.85;100.00;61331.59;5077854;28;34120;-66
2023/04/26 05:31:00;;;;;;;15.43;6.57;;;;;;;-144.85;100.00;61331.59;5075398;28;32503;-66
2023/04/26 05:33:47;;;;;;;15.38;6.35;;;;;;;-144.85;100.00;61331.59;5076035;28;32403;-66
2023/04/26 05:36:27;;;;;;;18.73;6.45;;;;;;;-144.85;100.00;61331.59;5079578;28;34204;-66
2023/04/26 05:38:56;;;;;;;23.30;6.55;;;;;;;-144.85;100.00;61331.59;5075226;28;31955;-66
2023/04/26 05:41:23;;;;;;;16.33;6.03;;;;;;;-144.85;100.00;61331.59;5094500;28;30364;-66
2023/04/26 05:43:51;;;;;;;15.65;6.85;;;;;;;-144.85;100.00;61331.59;5079787;28;31394;-66
2023/04/26 05:46:19;;;;;;;17.17;6.53;;;;;;;-144.85;100.00;61331.59;5089808;28;31926;-65
2023/04/26 05:48:46;;;;;;;12.93;6.80;;;;;;;-144.85;100.00;61331.59;5080230;28;31705;-65
2023/04/26 05:51:13;;;;;;;20.02;6.93;;;;;;;-144.85;100.00;61331.59;5077813;28;31598;-65
2023/04/26 05:53:40;;;;;;;15.50;6.35;;;;;;;-144.85;100.00;61331.59;5077798;28;31320;-65
2023/04/26 05:56:08;;;;;;;16.30;6.97;;;;;;;-144.85;100.00;61331.59;5087537;28;30986;-65
2023/04/26 05:58:35;;;;;;;14.02;6.88;;;;;;;-144.85;100.00;61331.59;5081780;28;30745;-65
2023/04/26 06:01:04;;;;;;;16.95;7.30;;;;;;;-144.85;100.00;61331.59;5077906;28;30568;-65
2023/04/26 06:03:31;;;;;;;16.63;7.40;;;;;;;-144.85;100.00;61331.59;5078155;28;31396;-64
2023/04/26 06:05:59;;;;;;;13.23;6.88;;;;;;;-144.85;100.00;61331.59;5077505;28;31121;-64
2023/04/26 06:08:27;;;;;;;13.18;6.63;;;;;;;-144.85;100.00;61331.59;5078297;28;30764;-64
2023/04/26 06:10:54;;;;;;;14.70;6.45;;;;;;;-144.85;100.00;61331.59;5078414;28;30568;-64
2023/04/26 06:13:21;;;;;;;17.95;7.10;;;;;;;-144.85;100.00;61331.59;5077250;28;31446;-64
2023/04/26 06:15:49;;;;;;;13.55;6.43;;;;;;;-144.85;100.00;61331.59;5079217;28;32399;-64
2023/04/26 06:18:16;;;;;;;13.82;6.35;;;;;;;-144.85;100.00;61331.59;5062510;28;31984;-64
2023/04/26 06:20:46;;;;;;;15.95;7.50;;;;;;;-144.85;100.00;61331.59;5076613;28;31426;-64
2023/04/26 06:23:14;;;;;;;18.52;7.40;;;;;;;-144.85;100.00;61331.59;5086520;28;31485;-64
2023/04/26 06:25:44;;;;;;;18.85;7.22;;;;;;;-144.85;100.00;61331.59;5061735;28;31173;-64
2023/04/26 06:28:11;;;;;;;15.10;6.97;;;;;;;-144.85;100.00;61331.59;5078764;28;31679;-65
2023/04/26 06:30:39;;;;;;;15.50;7.03;;;;;;;-144.85;100.00;61331.59;5077826;28;30316;-64
2023/04/26 06:33:07;;;;;;;14.75;7.00;;;;;;;-144.85;100.00;61331.59;5078277;28;33249;-64
2023/04/26 06:35:39;;;;;;;12.52;6.68;;;;;;;-144.85;100.00;61331.59;5092015;28;30996;-64
2023/04/26 06:38:08;;;;;;;13.43;6.93;;;;;;;-144.85;100.00;61331.59;5084800;28;30657;-64
2023/04/26 06:40:37;;;;;;;17.95;7.75;;;;;;;-144.85;100.00;61331.59;5091732;28;30435;-64
2023/04/26 06:43:04;;;;;;;14.93;7.07;;;;;;;-144.85;100.00;61331.59;5076598;28;33238;-64
2023/04/26 06:45:39;;;;;;;13.15;6.78;;;;;;;-144.85;100.00;61331.59;5062612;28;33628;-64
2023/04/26 06:48:10;;;;;;;18.58;7.20;;;;;;;-144.85;100.00;61331.59;5077778;28;31595;-64
2023/04/26 06:50:38;;;;;;;15.50;5.85;;;;;;;-144.85;100.00;61331.59;5094143;28;30668;-64
2023/04/26 06:53:06;;;;;;;12.90;6.05;;;;;;;-144.85;100.00;61331.59;5106198;28;31008;-64
2023/04/26 06:55:34;;;;;;;15.35;6.82;;;;;;;-144.85;100.00;61331.59;5076494;28;31909;-64
2023/04/26 06:58:01;;;;;;;15.88;6.97;;;;;;;-144.85;100.00;61331.59;5076445;28;31604;-64
2023/04/26 07:00:29;;;;;;;13.90;6.30;;;;;;;-144.85;100.00;61331.59;5077032;28;31427;-64
2023/04/26 07:02:56;;;;;;;17.55;6.28;;;;;;;-144.85;100.00;61331.59;5077158;28;33376;-64
2023/04/26 07:05:24;;;;;;;14.82;6.18;;;;;;;-144.85;100.00;61331.59;5070285;28;32312;-64
2023/04/26 07:07:52;;;;;;;13.60;6.07;;;;;;;-144.85;100.00;61331.59;5070333;28;32794;-64
2023/04/26 07:10:20;;;;;;;13.50;5.78;;;;;;;-144.85;100.00;61331.59;5077465;28;30405;-64
2023/04/26 07:12:47;;;;;;;11.10;5.47;;;;;;;-144.85;100.00;61331.59;5076413;28;32398;-64
2023/04/26 07:15:14;;;;;;;11.73;5.35;;;;;;;-144.85;100.00;61331.59;5077804;28;33367;-64
2023/04/26 07:17:41;;;;;;;10.05;5.07;;;;;;;-144.85;100.00;61331.59;5065208;28;31898;-64
2023/04/26 07:20:09;;;;;;;15.23;5.10;;;;;;;-144.85;100.00;61331.59;5082145;28;31371;-64
2023/04/26 07:22:36;;;;;;;12.57;5.00;;;;;;;-144.85;100.00;61331.59;5082727;28;32160;-64
2023/04/26 07:25:04;;;;;;;10.73;4.80;;;;;;;-144.85;100.00;61331.59;5076536;28;32163;-64
2023/04/26 07:27:31;;;;;;;9.57;4.53;;;;;;;-144.85;100.00;61331.59;5077220;28;32761;-64
2023/04/26 07:29:58;;;;;;;11.02;5.00;;;;;;;-144.85;100.00;61331.59;5076099;28;32168;-64
2023/04/26 07:32:25;;;;;;;8.40;3.83;;;;;;;-144.85;100.00;61331.59;5077040;28;32834;-64
2023/04/26 07:34:53;;;;;;;14.00;4.68;;;;;;;-144.85;100.00;61331.59;5075989;28;32107;-64
2023/04/26 07:37:20;;;;;;;12.32;5.43;;;;;;;-144.85;100.00;61331.59;5076986;28;31978;-64
2023/04/26 07:39:47;;;;;;;16.45;5.25;;;;;;;-144.85;100.00;61331.59;5096603;28;31099;-64
2023/04/26 07:42:15;;;;;;;16.38;5.68;;;;;;;-144.85;100.00;61331.59;5082610;28;32301;-64
2023/04/26 07:44:42;;;;;;;10.20;5.10;;;;;;;-144.85;100.00;61331.59;5080567;28;32782;-64
2023/04/26 07:47:13;;;;;;;12.13;5.32;;;;;;;-144.85;100.00;61331.59;5082143;28;31777;-64
2023/04/26 07:49:40;;;;;;;13.43;5.07;;;;;;;-144.85;100.00;61331.59;5082161;28;32613;-65
2023/04/26 07:52:08;;;;;;;15.45;5.38;;;;;;;-144.85;100.00;61331.59;5079074;28;32671;-64
2023/04/26 07:54:35;;;;;;;14.98;4.65;;;;;;;-144.85;100.00;61331.59;5087667;28;33204;-64
2023/04/26 07:57:03;;;;;;;11.52;4.13;;;;;;;-144.85;100.00;61331.59;5083664;28;30413;-64
2023/04/26 07:59:30;;;;;;;12.40;3.97;;;;;;;-144.85;100.00;61331.59;5097622;28;30406;-64
2023/04/26 08:01:57;;;;;;;11.75;4.30;;;;;;;-144.85;100.00;61331.59;5094133;28;32290;-64
2023/04/26 08:04:33;;;;;;;6.55;2.65;;;;;;;-144.85;100.00;61331.59;5081792;28;32183;-64
2023/04/26 08:07:01;;;;;;;6.28;2.53;;;;;;;-144.85;100.00;61331.59;5078854;28;31940;-64
2023/04/26 08:09:29;;;;;;;8.63;2.50;;;;;;;-144.85;100.00;61331.59;5079063;28;31712;-64
2023/04/26 08:11:57;;;;;;;9.18;3.15;;;;;;;-144.85;100.00;61331.59;5078153;28;33322;-64
2023/04/26 08:14:24;;;;;;;9.10;2.75;;;;;;;-144.85;100.00;61331.59;5081960;28;32543;-64
2023/04/26 08:16:52;;;;;;;10.80;3.03;;;;;;;-144.85;100.00;61331.59;5081770;28;31500;-64
2023/04/26 08:19:20;;;;;;;6.80;3.00;;;;;;;-144.85;100.00;61331.59;5078877;28;31854;-65
2023/04/26 08:21:47;;;;;;;8.15;3.50;;;;;;;-144.85;100.00;61331.59;5079730;28;31817;-66
2023/04/26 08:24:16;;;;;;;5.95;2.30;;;;;;;-144.85;100.00;61331.59;5079570;28;32112;-66
2023/04/26 08:26:44;;;;;;;5.43;1.98;;;;;;;-144.85;100.00;61331.59;5069276;28;32791;-64
2023/04/26 08:29:11;;;;;;;4.57;2.10;;;;;;;-144.85;100.00;61331.59;5078014;28;31517;-64
2023/04/26 08:31:38;;;;;;;6.60;2.20;;;;;;;-144.85;100.00;61331.59;5073038;28;32557;-64
2023/04/26 08:34:07;;;;;;;8.70;2.50;;;;;;;-144.85;100.00;61331.59;5085638;28;32014;-64
2023/04/26 08:36:36;;;;;;;8.07;2.30;;;;;;;-144.85;100.00;61331.59;5080051;28;32191;-64
2023/04/26 08:39:04;;;;;;;5.18;2.50;;;;;;;-144.85;100.00;61331.59;5078264;28;32566;-64
2023/04/26 08:41:53;;;;;;;6.22;2.95;;;;;;;-144.85;100.00;61331.59;5077661;28;32488;-64
2023/04/26 08:44:23;;;;;;;7.30;2.75;;;;;;;-144.85;100.00;61331.59;5097664;28;32437;-64
2023/04/26 08:47:05;;;;;;;11.55;2.72;;;;;;;-144.85;100.00;61331.59;5086652;28;31962;-64
2023/04/26 08:49:40;;;;;;;5.97;2.50;;;;;;;-144.85;100.00;61331.59;5079688;28;31345;-64
2023/04/26 08:52:09;;;;;;;;;;;;;;;-144.85;100.00;61331.59;5079463;28;33331;-64
2023/04/26 08:54:38;;;;;;;3.55;1.38;;;;;;;-144.85;100.00;61331.59;5087894;28;32312;-64
2023/04/26 08:57:08;;;;;;;9.45;1.70;;;;;;;-144.85;100.00;61331.59;5078793;28;32136;-64
2023/04/26 08:59:38;;;;;;;3.95;1.40;;;;;;;-144.85;100.00;61331.59;5078209;28;31605;-64
2023/04/26 09:02:09;;;;;;;5.97;1.92;;;;;;;-144.85;100.00;61331.59;5080511;28;33445;-64
2023/04/26 09:04:36;;;;;;;7.13;2.13;;;;;;;-144.85;100.00;61331.59;5079434;28;33033;-64
2023/04/26 09:07:06;;;;;;;5.47;2.50;;;;;;;-144.85;100.00;61331.59;5078275;28;31793;-64
2023/04/26 09:09:41;;;;;;;12.70;2.60;;;;;;;-144.85;100.00;61331.59;5078818;28;32618;-64
2023/04/26 09:12:08;;;;;;;5.68;2.30;;;;;;;-144.85;100.00;61331.59;5065562;28;32563;-64
2023/04/26 09:14:37;;;;;;;5.95;2.47;;;;;;;-144.85;100.00;61331.59;5077450;28;32008;-64
2023/04/26 09:17:05;;;;;;;5.57;2.33;;;;;;;-144.85;100.00;61331.59;5078909;28;32801;-64
2023/04/26 09:19:41;;;;;;;6.50;2.53;;;;;;;-144.85;100.00;61331.59;5077792;28;31758;-64
2023/04/26 09:22:09;;;;;;;3.92;1.95;;;;;;;-144.85;100.00;61331.59;5076701;28;32290;-64
2023/04/26 09:24:49;;;;;;;6.18;2.13;;;;;;;-144.85;100.00;61331.59;5077661;28;32026;-63
2023/04/26 09:27:17;;;;;;;5.65;1.95;;;;;;;-144.85;100.00;61331.59;5091952;28;31704;-63
2023/04/26 09:29:58;;;;;;;6.30;1.90;;;;;;;-144.85;100.00;61331.59;5077134;28;31531;-64
2023/04/26 09:32:25;;;;;;;4.70;2.00;;;;;;;-144.85;100.00;61331.59;5077160;28;32554;-63
2023/04/26 09:34:53;;;;;;;7.65;2.00;;;;;;;-144.85;100.00;61331.59;5077269;28;32461;-64
2023/04/26 09:37:20;;;;;;;4.57;2.00;;;;;;;-144.85;100.00;61331.59;5079435;28;32781;-64
2023/04/26 09:39:47;;;;;;;4.97;2.25;;;;;;;-144.85;100.00;61331.59;5079929;28;31368;-63
2023/04/26 09:42:17;;;;;;;5.03;1.77;;;;;;;-144.85;100.00;61331.59;5077413;28;32123;-64
2023/04/26 09:44:45;;;;;;;4.65;2.03;;;;;;;-144.85;100.00;61331.59;5077352;28;32857;-63
2023/04/26 09:47:12;;;;;;;6.25;2.35;;;;;;;-144.85;100.00;61331.59;5078452;28;32852;-64
2023/04/26 09:49:50;;;;;;;6.13;2.53;;;;;;;-144.85;100.00;61331.59;5078083;28;31791;-64
2023/04/26 09:52:18;;;;;;;4.00;2.15;;;;;;;-144.85;100.00;61331.59;5077222;28;31453;-64
2023/04/26 09:54:46;;;;;;;4.70;2.08;;;;;;;-144.85;100.00;61331.59;5077038;28;31922;-63
2023/04/26 09:57:15;;;;;;;5.20;1.95;;;;;;;-144.85;100.00;61331.59;5088144;28;31983;-63
2023/04/26 09:59:45;;;;;;;4.90;2.10;;;;;;;-144.85;100.00;61331.59;5078353;28;31430;-63
2023/04/26 10:02:14;;;;;;;5.82;2.13;;;;;;;-144.85;100.00;61331.59;5089404;28;31598;-64
2023/04/26 10:04:47;;;;;;;3.47;1.88;;;;;;;-144.85;100.00;61331.59;5076073;28;32952;-64
2023/04/26 10:07:16;;;;;;;5.15;2.10;;;;;;;-144.85;100.00;61331.59;5064974;28;32123;-63
2023/04/26 10:09:45;;;;;;;5.43;2.20;;;;;;;-144.85;100.00;61331.59;5077696;28;31484;-63
2023/04/26 10:12:15;;;;;;;5.63;2.10;;;;;;;-144.85;100.00;61331.59;5076102;28;33427;-63
2023/04/26 10:14:43;;;;;;;5.03;2.47;;;;;;;-144.85;100.00;61331.59;5090474;28;31931;-63
2023/04/26 10:17:11;;;;;;;5.45;2.50;;;;;;;-144.85;100.00;61331.59;5087531;28;32747;-63
2023/04/26 10:19:45;;;;;;;6.13;2.40;;;;;;;-144.85;100.00;61331.59;5084611;28;31355;-63
2023/04/26 10:22:29;;;;;;;8.50;2.47;;;;;;;-144.85;100.00;61331.59;5085877;28;33056;-63
2023/04/26 10:24:57;;;;;;;8.30;2.58;;;;;;;-144.85;100.00;61331.59;5078379;28;33731;-64
2023/04/26 10:27:42;;;;;;;6.13;2.40;;;;;;;-144.85;100.00;61331.59;5079650;28;31786;-64
2023/04/26 10:30:14;;;;;;;9.93;2.60;;;;;;;-144.85;100.00;61331.59;5076890;28;31719;-64
2023/04/26 10:33:07;;;;;;;7.78;2.67;;;;;;;-144.85;100.00;61331.59;5077631;28;31390;-64
2023/04/26 10:35:36;;;;;;;9.48;3.03;;;;;;;-144.85;100.00;61331.59;5095202;22;33216;-81
2023/04/26 10:38:08;;;;;;;6.03;2.50;;;;;;;-144.85;100.00;61331.59;5122592;27;33096;-80
2023/04/26 10:40:39;;;;;;;7.50;2.55;;;;;;;-144.85;100.00;61331.59;5123223;27;32952;-80
2023/04/26 10:43:13;;;;;;;7.45;2.40;;;;;;;-144.85;100.00;61331.59;5120811;28;32977;-80
2023/04/26 10:45:42;;;;;;;9.50;2.50;;;;;;;-144.85;100.00;61331.59;5113075;28;33287;-80
2023/04/26 10:48:20;;;;;;;7.53;2.50;;;;;;;-144.85;100.00;61331.59;5110329;28;32575;-80
2023/04/26 10:51:00;;;;;;;7.00;2.85;;;;;;;-144.85;100.00;61331.59;5115498;28;31639;-79
2023/04/26 10:53:51;;;;;;;6.32;2.78;;;;;;;-144.85;100.00;61331.59;5114114;28;32592;-79
2023/04/26 10:56:23;;;;;;;4.28;2.53;;;;;;;-144.85;100.00;61331.59;5099029;28;33116;-79
2023/04/26 10:59:12;;;;;;;6.85;2.67;;;;;;;-144.85;100.00;61331.59;5102116;28;33318;-81
2023/04/26 11:02:00;;;;;;;5.88;2.20;;;;;;;-144.85;100.00;61331.59;5100280;28;30561;-80
2023/04/26 11:04:50;;;;;;;7.05;2.38;;;;;;;-144.85;100.00;61331.59;5102953;28;33904;-82
2023/04/26 11:07:35;;;;;;;7.18;2.70;;;;;;;-144.85;100.00;61331.59;5106513;28;32049;-81
2023/04/26 11:10:02;;;;;;;8.60;2.60;;;;;;;-144.85;100.00;61331.59;5094983;28;32828;-81
2023/04/26 11:12:32;;;;;;;7.68;2.65;;;;;;;-144.85;100.00;61331.59;5109937;28;30265;-80
2023/04/26 11:14:59;;;;;;;5.03;2.45;;;;;;;-144.85;100.00;61331.59;5088600;28;31515;-81